Time;durP1;ratioP1;P1;durP2;ratioP2;P2;SDS_P1;SDS_P2;PMS_P1;PMS_P2;Temp;Humidity;BMP_temperature;BMP_pressure;BME280_temperature;BME280_humidity;BME280_pressure;Samples;Min_cycle;Max_cycle;Signal;HPM_P1;HPM_P2
2022/03/10 00:01:02;;;;;;;26.65;17.55;;;;;;;5.46;46.71;95259.47;5090530;28;20183;-59
2022/03/10 00:03:29;;;;;;;26.05;17.38;;;;;;;5.69;46.16;95267.44;5090673;28;20264;-63
2022/03/10 00:05:56;;;;;;;28.92;18.10;;;;;;;5.68;46.20;95258.03;5089563;28;20199;-61
2022/03/10 00:08:23;;;;;;;28.90;17.88;;;;;;;5.48;46.35;95262.63;5089984;28;20219;-60
2022/03/10 00:10:49;;;;;;;26.05;16.73;;;;;;;5.56;46.51;95251.97;5089908;28;20233;-61
2022/03/10 00:13:16;;;;;;;27.65;17.45;;;;;;;5.13;47.15;95263.16;5090310;28;20256;-63
2022/03/10 00:15:43;;;;;;;25.88;17.35;;;;;;;5.24;47.21;95258.28;5089366;28;20187;-64
2022/03/10 00:18:10;;;;;;;29.40;17.70;;;;;;;5.29;46.76;95261.03;5089518;28;20292;-61
2022/03/10 00:20:37;;;;;;;29.17;18.08;;;;;;;5.40;46.90;95247.34;5089338;28;20623;-63
2022/03/10 00:23:04;;;;;;;26.00;17.67;;;;;;;5.36;46.64;95257.38;5090084;28;20230;-60
2022/03/10 00:25:33;;;;;;;28.25;18.17;;;;;;;5.97;45.65;95250.34;5089182;28;20195;-62
2022/03/10 00:27:59;;;;;;;26.25;17.75;;;;;;;5.54;46.04;95248.78;5089808;28;20210;-63
2022/03/10 00:30:26;;;;;;;27.85;17.67;;;;;;;5.40;46.34;95242.16;5089446;28;20201;-63
2022/03/10 00:32:53;;;;;;;26.52;17.58;;;;;;;5.54;45.99;95241.81;5089604;28;20760;-62
2022/03/10 00:35:24;;;;;;;28.15;18.70;;;;;;;5.67;45.91;95251.25;5089382;28;20198;-60
2022/03/10 00:37:57;;;;;;;29.60;18.40;;;;;;;5.91;45.44;95247.84;5088943;28;20194;-60
2022/03/10 00:40:25;;;;;;;29.40;19.00;;;;;;;5.83;45.40;95248.13;5089417;28;20202;-62
2022/03/10 00:42:52;;;;;;;28.88;18.95;;;;;;;5.82;45.57;95241.31;5088557;28;20298;-59
2022/03/10 00:45:19;;;;;;;29.88;18.70;;;;;;;5.98;45.24;95245.94;5088834;28;20240;-62
2022/03/10 00:47:46;;;;;;;25.52;17.40;;;;;;;5.88;45.11;95248.25;5089023;28;20258;-63
2022/03/10 00:50:14;;;;;;;26.58;17.65;;;;;;;5.72;45.43;95239.22;5088772;28;20312;-62
2022/03/10 00:52:41;;;;;;;27.88;18.60;;;;;;;5.11;46.55;95241.00;5089012;28;20200;-61
2022/03/10 00:55:10;;;;;;;28.27;19.05;;;;;;;5.62;45.87;95230.31;5089089;28;20621;-61
2022/03/10 00:57:37;;;;;;;28.42;18.42;;;;;;;5.12;47.02;95240.81;5089084;28;20179;-63
2022/03/10 01:00:06;;;;;;;31.27;18.88;;;;;;;5.38;46.61;95237.16;5089438;28;20186;-60
2022/03/10 01:02:34;;;;;;;27.40;18.20;;;;;;;5.45;45.84;95234.50;5089289;28;20211;-61
2022/03/10 01:05:06;;;;;;;32.58;19.33;;;;;;;5.88;45.23;95235.25;5088906;28;20202;-62
2022/03/10 01:07:33;;;;;;;28.10;18.88;;;;;;;5.80;45.36;95228.50;5089243;28;20206;-61
2022/03/10 01:10:01;;;;;;;29.40;18.50;;;;;;;5.36;45.93;95221.00;5088427;28;20226;-59
2022/03/10 01:12:28;;;;;;;28.25;18.45;;;;;;;5.82;44.93;95233.50;5089161;28;20199;-62
2022/03/10 01:14:55;;;;;;;29.23;18.95;;;;;;;5.98;45.24;95230.34;5089032;28;20377;-62
2022/03/10 01:17:22;;;;;;;29.00;19.40;;;;;;;5.83;45.25;95227.31;5088744;28;20215;-61
2022/03/10 01:19:49;;;;;;;30.20;17.95;;;;;;;5.83;45.48;95232.50;5070161;28;20586;-62
2022/03/10 01:22:17;;;;;;;28.23;19.05;;;;;;;5.89;44.71;95227.22;5089179;28;20587;-61
2022/03/10 01:24:44;;;;;;;29.27;18.38;;;;;;;5.64;45.35;95223.13;5089339;28;20268;-61
2022/03/10 01:27:11;;;;;;;27.20;18.15;;;;;;;5.63;45.15;95226.72;5088780;28;20271;-61
2022/03/10 01:29:38;;;;;;;29.48;18.67;;;;;;;5.75;45.34;95219.75;5088771;28;20288;-59
2022/03/10 01:32:05;;;;;;;27.02;18.45;;;;;;;5.82;45.23;95221.28;5089202;28;20203;-60
2022/03/10 01:34:34;;;;;;;26.73;17.48;;;;;;;5.66;45.14;95210.66;5088349;28;20217;-63
2022/03/10 01:37:01;;;;;;;28.88;18.23;;;;;;;5.84;44.81;95213.28;5089096;28;20227;-61
2022/03/10 01:39:27;;;;;;;28.45;18.42;;;;;;;5.93;44.58;95217.22;5087810;28;20252;-63
2022/03/10 01:41:54;;;;;;;24.00;17.13;;;;;;;6.05;44.19;95231.06;5088897;28;20207;-62
2022/03/10 01:44:22;;;;;;;23.30;15.45;;;;;;;6.29;43.35;95226.75;5088183;28;20244;-61
2022/03/10 01:46:49;;;;;;;23.85;15.93;;;;;;;5.92;44.02;95221.59;5088663;28;20262;-59
2022/03/10 01:49:16;;;;;;;25.40;15.80;;;;;;;6.07;43.67;95219.44;5088129;28;20294;-61
2022/03/10 01:51:43;;;;;;;23.33;16.20;;;;;;;5.76;44.72;95221.38;5088974;28;20286;-60
2022/03/10 01:54:10;;;;;;;28.90;16.98;;;;;;;5.79;44.63;95223.53;5089185;28;20191;-62
2022/03/10 01:56:37;;;;;;;25.63;16.75;;;;;;;5.79;44.42;95226.13;5092868;28;20203;-61
2022/03/10 01:59:04;;;;;;;26.60;16.35;;;;;;;5.69;44.70;95225.84;5091986;28;20308;-59
2022/03/10 02:01:31;;;;;;;27.30;16.70;;;;;;;5.88;44.21;95224.84;5074160;28;20594;-61
2022/03/10 02:03:59;;;;;;;27.15;17.27;;;;;;;5.93;44.07;95230.22;5092100;28;20286;-64
2022/03/10 02:06:26;;;;;;;24.02;16.60;;;;;;;5.95;44.03;95226.34;5092240;28;20203;-64
2022/03/10 02:11:39;;;;;;;24.10;15.32;;;;;;;6.04;43.51;95234.66;5092179;28;20205;-61
2022/03/10 02:19:37;;;;;;;24.58;16.23;;;;;;;5.87;43.76;95228.47;5091335;28;20201;-60
2022/03/10 02:22:07;;;;;;;26.80;17.58;;;;;;;5.80;43.96;95223.28;5091939;28;20702;-61
2022/03/10 02:24:37;;;;;;;25.30;16.60;;;;;;;5.92;43.87;95228.59;5091425;28;20282;-62
2022/03/10 02:27:19;;;;;;;23.70;15.75;;;;;;;5.48;44.59;95234.06;5092226;28;20360;-60
2022/03/10 02:29:52;;;;;;;25.38;16.55;;;;;;;5.58;44.37;95229.97;5091844;28;20218;-61
2022/03/10 02:32:19;;;;;;;25.63;17.42;;;;;;;5.58;44.35;95234.38;5092421;28;20207;-62
2022/03/10 02:34:47;;;;;;;29.60;18.52;;;;;;;5.59;44.20;95241.13;5092079;28;20191;-62
2022/03/10 02:37:15;;;;;;;30.55;18.88;;;;;;;5.33;44.75;95236.22;5092099;28;20207;-61
2022/03/10 02:39:43;;;;;;;29.58;19.73;;;;;;;5.44;45.05;95249.28;5091265;28;20180;-59
2022/03/10 02:42:12;;;;;;;32.42;20.95;;;;;;;5.22;45.28;95250.69;5091613;28;20191;-63
2022/03/10 02:44:42;;;;;;;33.22;20.70;;;;;;;5.15;45.40;95249.94;5073232;28;20195;-60
2022/03/10 02:47:10;;;;;;;33.88;20.80;;;;;;;4.19;46.35;95250.41;5091340;28;20231;-60
2022/03/10 02:49:38;;;;;;;35.15;21.27;;;;;;;5.09;45.25;95250.81;5090980;28;20683;-61
2022/03/10 02:52:06;;;;;;;34.80;20.58;;;;;;;5.18;44.14;95253.94;5091515;28;20268;-60
2022/03/10 02:54:44;;;;;;;31.90;19.88;;;;;;;4.87;44.12;95259.97;5091644;28;20211;-63
2022/03/10 02:57:12;;;;;;;34.22;20.40;;;;;;;5.22;43.70;95262.91;5091795;28;20222;-61
2022/03/10 02:59:39;;;;;;;32.50;19.63;;;;;;;5.18;43.67;95256.53;5091469;28;20883;-60
2022/03/10 03:02:06;;;;;;;36.55;21.27;;;;;;;4.30;45.09;95245.38;5092059;28;20678;-60
2022/03/10 03:04:33;;;;;;;36.92;19.85;;;;;;;4.74;44.29;95255.69;5091259;28;20219;-60
2022/03/10 03:07:01;;;;;;;35.15;19.45;;;;;;;4.51;44.14;95265.78;5089852;28;20236;-61
2022/03/10 03:09:28;;;;;;;30.88;17.48;;;;;;;4.63;44.09;95266.72;5090827;28;20222;-63
2022/03/10 03:11:55;;;;;;;27.95;16.88;;;;;;;4.90;43.10;95257.75;5091575;28;20194;-63
2022/03/10 03:14:23;;;;;;;27.50;16.33;;;;;;;4.78;42.79;95259.41;5090924;28;20190;-60
2022/03/10 03:16:51;;;;;;;27.80;16.33;;;;;;;4.83;42.78;95272.59;5091279;28;20291;-60
2022/03/10 03:19:18;;;;;;;25.27;15.98;;;;;;;4.50;43.33;95272.00;5090217;28;20278;-62
2022/03/10 03:21:46;;;;;;;25.55;15.18;;;;;;;4.71;42.30;95274.25;5091254;28;20205;-63
2022/03/10 03:24:13;;;;;;;24.58;14.45;;;;;;;4.97;41.97;95271.47;5090549;28;20202;-60
2022/03/10 03:26:40;;;;;;;27.65;16.33;;;;;;;4.70;42.12;95272.69;5090966;28;20196;-61
2022/03/10 03:29:07;;;;;;;24.83;15.43;;;;;;;4.88;41.71;95277.94;5089921;28;20268;-62
2022/03/10 03:31:34;;;;;;;26.45;15.35;;;;;;;4.87;41.04;95276.34;5091055;28;20272;-62
2022/03/10 03:34:01;;;;;;;22.52;11.95;;;;;;;4.62;40.29;95265.13;5090695;28;20207;-62
2022/03/10 03:36:27;;;;;;;20.63;11.93;;;;;;;4.28;40.86;95281.09;5090543;28;20206;-60
2022/03/10 03:38:56;;;;;;;19.90;11.65;;;;;;;4.22;40.60;95283.69;5090202;28;20219;-61
2022/03/10 03:41:23;;;;;;;18.95;11.40;;;;;;;4.14;40.14;95287.34;5091061;28;20557;-61
2022/03/10 03:43:50;;;;;;;18.23;9.95;;;;;;;4.48;39.91;95274.00;5090403;28;20195;-61
2022/03/10 03:46:16;;;;;;;16.65;9.80;;;;;;;4.60;39.45;95274.91;5090530;28;20188;-59
2022/03/10 03:48:43;;;;;;;16.23;9.43;;;;;;;4.44;39.12;95277.22;5089541;28;20245;-60
2022/03/10 03:51:10;;;;;;;17.25;10.60;;;;;;;4.02;39.83;95278.59;5090424;28;20253;-62
2022/03/10 03:53:37;;;;;;;15.88;8.88;;;;;;;4.30;39.28;95281.69;5091056;28;20283;-62
2022/03/10 03:56:04;;;;;;;16.13;9.88;;;;;;;4.47;38.94;95276.81;5090371;28;20260;-64
2022/03/10 03:58:31;;;;;;;14.25;8.32;;;;;;;4.27;39.32;95279.47;5090212;28;20693;-61
2022/03/10 04:00:58;;;;;;;15.52;8.45;;;;;;;4.26;39.01;95290.88;5089530;28;20276;-59
2022/03/10 04:03:25;;;;;;;12.88;7.63;;;;;;;4.17;38.94;95286.94;5090417;28;20800;-59
2022/03/10 04:05:52;;;;;;;13.07;7.78;;;;;;;4.11;38.41;95300.72;5089624;28;20183;-60
2022/03/10 04:08:21;;;;;;;14.88;8.60;;;;;;;4.28;38.47;95299.25;5089817;28;20670;-62
2022/03/10 04:10:48;;;;;;;14.57;7.88;;;;;;;4.35;38.61;95310.38;5089331;28;20297;-64
2022/03/10 04:13:15;;;;;;;15.82;8.93;;;;;;;4.05;38.69;95309.31;5089956;28;21018;-59
2022/03/10 04:15:42;;;;;;;15.57;8.90;;;;;;;4.00;39.10;95311.72;5089553;28;20588;-60
2022/03/10 04:18:09;;;;;;;15.05;9.07;;;;;;;4.31;38.52;95304.00;5089190;28;20584;-61
2022/03/10 04:20:36;;;;;;;13.88;8.45;;;;;;;4.03;39.05;95316.50;5089755;28;20179;-61
2022/03/10 04:23:03;;;;;;;13.35;8.30;;;;;;;3.76;39.62;95309.81;5090048;28;20662;-62
2022/03/10 04:25:30;;;;;;;17.20;9.40;;;;;;;4.13;39.41;95311.66;5089366;28;20203;-60
2022/03/10 04:27:57;;;;;;;15.00;9.20;;;;;;;4.00;39.42;95311.72;5089498;28;20248;-63
2022/03/10 04:30:24;;;;;;;15.88;8.88;;;;;;;4.30;38.92;95323.19;5089103;28;20238;-61
2022/03/10 04:32:51;;;;;;;16.23;9.27;;;;;;;4.09;39.12;95320.84;5089770;28;20255;-61
2022/03/10 04:35:19;;;;;;;18.65;10.82;;;;;;;4.39;39.02;95321.16;5089308;28;20217;-60
2022/03/10 04:37:51;;;;;;;18.17;10.50;;;;;;;4.50;38.62;95323.91;5089847;28;20681;-61
2022/03/10 04:40:19;;;;;;;15.60;9.50;;;;;;;4.56;38.36;95327.47;5089291;28;20199;-62
2022/03/10 04:42:47;;;;;;;22.65;11.75;;;;;;;4.63;43.21;95333.41;5089295;28;20219;-60
2022/03/10 04:45:15;;;;;;;22.08;13.32;;;;;;;4.78;40.00;95326.91;5088919;28;20207;-62
2022/03/10 04:47:42;;;;;;;22.00;13.05;;;;;;;4.31;39.29;95340.31;5089412;28;20239;-61
2022/03/10 04:50:11;;;;;;;20.80;11.55;;;;;;;4.61;38.81;95341.41;5088570;28;20291;-59
2022/03/10 04:52:39;;;;;;;18.10;10.20;;;;;;;4.58;38.66;95341.81;5089904;28;20179;-63
2022/03/10 04:55:06;;;;;;;23.73;12.18;;;;;;;4.66;38.69;95344.16;5089237;28;20231;-59
2022/03/10 04:57:34;;;;;;;19.23;11.50;;;;;;;4.74;38.54;95351.72;5089378;28;20195;-59
2022/03/10 05:00:08;;;;;;;22.02;11.65;;;;;;;4.69;38.52;95354.13;5088085;28;20187;-60
2022/03/10 05:02:35;;;;;;;18.73;11.02;;;;;;;4.64;38.47;95360.94;5083493;28;20198;-60
2022/03/10 05:05:03;;;;;;;23.83;14.10;;;;;;;4.85;38.33;95364.03;5088312;28;20207;-59
2022/03/10 05:07:30;;;;;;;21.75;14.18;;;;;;;4.81;38.21;95365.47;5085655;28;20199;-60
2022/03/10 05:09:58;;;;;;;24.98;14.57;;;;;;;4.91;37.75;95365.78;5087437;28;20314;-59
2022/03/10 05:12:25;;;;;;;19.67;11.98;;;;;;;4.99;37.39;95362.97;5088216;28;20214;-62
2022/03/10 05:14:53;;;;;;;16.35;10.90;;;;;;;4.95;37.59;95363.56;5088286;28;20203;-62
2022/03/10 05:17:21;;;;;;;16.40;9.85;;;;;;;4.66;38.09;95371.91;5089049;28;20199;-63
2022/03/10 05:19:48;;;;;;;15.88;9.82;;;;;;;4.62;38.56;95392.28;5088989;28;20565;-61
2022/03/10 05:22:16;;;;;;;15.32;9.48;;;;;;;4.60;38.60;95385.75;5088341;28;20191;-61
2022/03/10 05:24:43;;;;;;;15.43;9.90;;;;;;;4.67;38.73;95389.88;5088384;28;20250;-61
2022/03/10 05:27:10;;;;;;;18.65;10.00;;;;;;;4.67;38.34;95387.28;5088238;28;20175;-63
2022/03/10 05:29:40;;;;;;;16.70;10.32;;;;;;;4.71;38.64;95395.44;5089071;28;20226;-59
2022/03/10 05:32:10;;;;;;;14.80;9.45;;;;;;;4.80;38.37;95404.63;5093288;28;20701;-64
2022/03/10 05:34:38;;;;;;;16.65;10.45;;;;;;;4.62;38.82;95409.66;5092909;28;20190;-62
2022/03/10 05:37:05;;;;;;;16.13;10.35;;;;;;;4.60;38.93;95391.69;5092734;28;20199;-62
2022/03/10 05:39:33;;;;;;;28.70;14.65;;;;;;;4.76;44.69;95406.81;5092228;28;20194;-63
2022/03/10 05:42:00;;;;;;;23.08;12.88;;;;;;;4.96;41.29;95420.47;5092536;28;20194;-64
2022/03/10 05:44:27;;;;;;;22.95;13.57;;;;;;;5.20;39.74;95433.75;5091862;28;20210;-62
2022/03/10 05:46:53;;;;;;;20.48;12.75;;;;;;;4.95;39.21;95408.53;5092518;28;20239;-61
2022/03/10 05:49:20;;;;;;;21.92;13.73;;;;;;;4.95;39.63;95425.88;5092734;28;20212;-62
2022/03/10 05:51:47;;;;;;;22.90;13.07;;;;;;;4.86;39.38;95432.34;5093140;28;20207;-64
2022/03/10 05:54:14;;;;;;;20.13;13.18;;;;;;;4.69;41.60;95432.00;5092134;28;20182;-65
2022/03/10 05:56:41;;;;;;;22.05;12.95;;;;;;;5.14;39.82;95431.00;5092847;28;20187;-63
2022/03/10 05:59:08;;;;;;;84.05;53.88;;;;;;;4.45;40.38;95427.50;5092458;28;20199;-61
2022/03/10 06:01:35;;;;;;;22.88;13.57;;;;;;;4.85;38.99;95436.72;5092450;28;20305;-60
2022/03/10 06:04:02;;;;;;;24.00;14.57;;;;;;;5.27;38.67;95439.72;5092367;28;20207;-64
2022/03/10 06:06:34;;;;;;;29.45;17.45;;;;;;;5.28;38.22;95441.28;5092826;28;20572;-62
2022/03/10 06:09:01;;;;;;;32.22;18.30;;;;;;;5.04;38.45;95435.03;5091832;28;20207;-64
2022/03/10 06:11:29;;;;;;;28.33;16.77;;;;;;;5.41;37.95;95441.22;5092558;28;20286;-64
2022/03/10 06:13:56;;;;;;;28.75;16.05;;;;;;;5.24;37.71;95442.75;5091652;28;20252;-62
2022/03/10 06:16:23;;;;;;;23.85;14.65;;;;;;;5.34;38.03;95445.66;5092301;28;20199;-64
2022/03/10 06:18:52;;;;;;;22.48;13.65;;;;;;;5.04;37.47;95451.44;5091833;28;20229;-63
2022/03/10 06:21:21;;;;;;;21.23;12.68;;;;;;;5.15;36.87;95448.16;5091287;28;20194;-64
2022/03/10 06:23:48;;;;;;;18.00;10.63;;;;;;;5.52;37.00;95438.75;5090392;28;20291;-64
2022/03/10 06:26:15;;;;;;;15.32;9.75;;;;;;;5.46;35.94;95443.97;5091814;28;20218;-62
2022/03/10 06:28:42;;;;;;;15.48;9.05;;;;;;;5.54;35.40;95446.34;5091849;28;20179;-59
2022/03/10 06:31:09;;;;;;;12.57;8.25;;;;;;;4.94;34.62;95458.88;5091757;28;20203;-62
2022/03/10 06:33:36;;;;;;;28.30;17.38;;;;;;;5.51;35.68;95451.97;5092008;28;20198;-64
2022/03/10 06:36:05;;;;;;;13.15;7.57;;;;;;;5.73;34.59;95455.81;5091459;28;20214;-60
2022/03/10 06:38:32;;;;;;;12.05;7.80;;;;;;;5.90;34.64;95456.88;5092168;28;20326;-63
2022/03/10 06:40:59;;;;;;;12.05;7.60;;;;;;;6.03;34.36;95462.00;5091284;28;20234;-59
2022/03/10 06:43:26;;;;;;;10.35;6.25;;;;;;;6.30;33.45;95463.34;5092319;28;20180;-62
2022/03/10 06:45:53;;;;;;;9.60;5.75;;;;;;;6.38;33.40;95470.06;5091949;28;20199;-61
2022/03/10 06:48:20;;;;;;;7.40;4.95;;;;;;;6.00;32.47;95463.19;5091765;28;20270;-61
2022/03/10 06:50:47;;;;;;;8.95;4.97;;;;;;;6.00;32.47;95460.59;5091357;28;20218;-61
2022/03/10 06:53:15;;;;;;;8.38;5.03;;;;;;;5.97;32.56;95478.44;5091836;28;20198;-63
2022/03/10 06:55:42;;;;;;;5.47;4.13;;;;;;;5.98;31.96;95469.63;5091114;28;20261;-58
2022/03/10 06:58:10;;;;;;;5.60;4.38;;;;;;;5.73;31.89;95450.59;5092071;28;20647;-62
2022/03/10 07:00:37;;;;;;;7.78;4.70;;;;;;;6.22;32.52;95481.03;5091357;28;20199;-59
2022/03/10 07:03:04;;;;;;;10.13;5.80;;;;;;;6.31;32.49;95485.75;5091605;28;20647;-62
2022/03/10 07:05:31;;;;;;;9.35;4.95;;;;;;;6.27;32.21;95484.59;5091225;28;20191;-61
2022/03/10 07:07:58;;;;;;;5.78;4.07;;;;;;;6.47;31.85;95480.00;5091896;28;20196;-60
2022/03/10 07:10:25;;;;;;;7.13;4.55;;;;;;;6.35;31.15;95484.31;5090678;28;20304;-61
2022/03/10 07:12:54;;;;;;;7.90;4.75;;;;;;;5.79;30.63;95486.94;5091198;28;20195;-61
2022/03/10 07:15:22;;;;;;;7.28;4.68;;;;;;;6.15;31.47;95481.09;5090566;28;20201;-63
2022/03/10 07:17:52;;;;;;;7.00;4.68;;;;;;;6.36;30.63;95488.50;5091760;28;20206;-61
2022/03/10 07:20:18;;;;;;;6.97;4.25;;;;;;;6.44;30.93;95498.63;5090066;28;20187;-61
2022/03/10 07:22:46;;;;;;;7.15;4.75;;;;;;;6.47;30.96;95490.41;5091444;28;20416;-60
2022/03/10 07:25:13;;;;;;;6.97;4.82;;;;;;;6.70;30.83;95495.78;5090850;28;20220;-60
2022/03/10 07:27:40;;;;;;;6.97;4.10;;;;;;;6.76;30.65;95500.13;5091219;28;20191;-63
2022/03/10 07:30:08;;;;;;;6.05;4.22;;;;;;;6.62;30.89;95498.69;5090133;28;20215;-61
2022/03/10 07:32:35;;;;;;;7.85;4.25;;;;;;;6.58;30.63;95500.13;5090815;28;20593;-59
2022/03/10 07:35:02;;;;;;;7.13;5.05;;;;;;;6.55;30.38;95505.75;5090475;28;20195;-60
2022/03/10 07:37:29;;;;;;;7.65;4.53;;;;;;;6.57;30.54;95501.13;5091099;28;20268;-62
2022/03/10 07:39:58;;;;;;;7.15;4.63;;;;;;;6.97;31.12;95501.50;5089645;28;20199;-60
2022/03/10 07:42:24;;;;;;;7.13;4.93;;;;;;;7.18;30.09;95499.25;5090748;28;20195;-62
2022/03/10 07:44:54;;;;;;;7.53;5.28;;;;;;;7.33;30.22;95500.66;5090407;28;20621;-59
2022/03/10 07:47:21;;;;;;;8.23;5.47;;;;;;;6.78;30.16;95508.53;5090459;28;20227;-60
2022/03/10 07:49:48;;;;;;;6.70;4.55;;;;;;;7.34;29.00;95505.66;5090070;28;20295;-62
2022/03/10 07:52:14;;;;;;;6.45;4.30;;;;;;;7.43;29.35;95501.72;5089775;28;20236;-59
2022/03/10 07:54:41;;;;;;;5.22;3.60;;;;;;;7.31;29.94;95502.69;5090283;28;20363;-61
2022/03/10 07:57:08;;;;;;;7.47;4.25;;;;;;;6.67;29.30;95506.63;5090194;28;20195;-60
2022/03/10 07:59:35;;;;;;;5.47;4.00;;;;;;;7.13;29.80;95504.28;5089633;28;20199;-63
2022/03/10 08:02:04;;;;;;;7.15;4.25;;;;;;;6.74;28.94;95517.78;5090984;28;20203;-60
2022/03/10 08:07:23;;;;;;;6.30;4.05;;;;;;;6.68;29.47;95518.63;5090116;28;20505;-63
2022/03/10 08:09:50;;;;;;;7.10;4.97;;;;;;;6.77;29.35;95517.34;5090205;28;20268;-60
2022/03/10 08:12:17;;;;;;;6.78;4.00;;;;;;;6.98;29.36;95519.53;5090581;28;20211;-61
2022/03/10 08:14:44;;;;;;;6.57;4.30;;;;;;;6.53;30.05;95520.78;5089659;28;20255;-61
2022/03/10 08:17:10;;;;;;;5.38;4.00;;;;;;;6.81;29.52;95521.09;5090162;28;20602;-63
2022/03/10 08:19:37;;;;;;;7.78;4.25;;;;;;;7.00;29.72;95520.09;5089576;28;20199;-59
2022/03/10 08:22:08;;;;;;;7.40;4.45;;;;;;;6.96;29.91;95521.56;5089766;28;20701;-60
2022/03/10 08:24:36;;;;;;;7.32;4.53;;;;;;;7.10;29.29;95517.78;5089119;28;20187;-58
2022/03/10 08:27:03;;;;;;;7.38;4.97;;;;;;;7.13;29.56;95519.94;5089305;28;20205;-62
2022/03/10 08:29:29;;;;;;;9.13;5.95;;;;;;;7.31;29.60;95523.53;5089539;28;20286;-62
2022/03/10 08:31:56;;;;;;;7.95;5.18;;;;;;;7.29;29.22;95522.97;5089612;28;20205;-61
2022/03/10 08:34:23;;;;;;;7.03;4.68;;;;;;;7.04;28.95;95521.25;5088960;28;20276;-60
2022/03/10 08:36:51;;;;;;;8.00;4.70;;;;;;;7.16;29.13;95522.13;5089320;28;20206;-63
2022/03/10 08:39:18;;;;;;;7.07;5.05;;;;;;;7.72;28.83;95527.00;5089102;28;20221;-62
2022/03/10 08:41:45;;;;;;;6.97;4.68;;;;;;;7.56;28.70;95521.59;5089854;28;20565;-60
2022/03/10 08:44:12;;;;;;;7.03;4.70;;;;;;;7.49;28.23;95520.91;5089542;28;20191;-60
2022/03/10 08:46:39;;;;;;;11.48;5.65;;;;;;;7.86;28.71;95512.78;5089386;28;20294;-60
2022/03/10 08:49:06;;;;;;;10.75;7.03;;;;;;;7.67;29.40;95526.06;5088690;28;20202;-60
2022/03/10 08:51:33;;;;;;;7.40;5.13;;;;;;;7.81;29.10;95523.06;5089580;28;20589;-60
2022/03/10 08:54:02;;;;;;;6.85;4.38;;;;;;;7.68;28.46;95515.41;5090094;28;20636;-61
2022/03/10 08:56:29;;;;;;;5.38;3.80;;;;;;;8.41;27.66;95509.94;5089326;28;20591;-58
2022/03/10 08:58:56;;;;;;;6.07;3.80;;;;;;;8.62;27.98;95502.31;5088505;28;20195;-63
2022/03/10 09:01:23;;;;;;;4.60;3.08;;;;;;;9.08;27.22;95496.22;5089179;28;20196;-61
2022/03/10 09:03:51;;;;;;;4.68;3.00;;;;;;;8.65;24.99;95501.06;5088097;28;20202;-60
2022/03/10 09:06:19;;;;;;;4.57;3.20;;;;;;;9.00;27.55;95512.25;5088995;28;20606;-63
2022/03/10 09:08:48;;;;;;;6.10;3.45;;;;;;;9.10;27.20;95504.63;5088563;28;20195;-62
2022/03/10 09:11:16;;;;;;;10.13;3.97;;;;;;;8.46;27.35;95508.22;5088765;28;20219;-60
2022/03/10 09:13:48;;;;;;;6.25;3.72;;;;;;;8.09;27.69;95506.78;5088628;28;20195;-60
2022/03/10 09:16:16;;;;;;;5.35;3.53;;;;;;;8.16;26.08;95497.84;5088692;28;20214;-59
2022/03/10 09:18:45;;;;;;;4.38;3.17;;;;;;;8.08;26.19;95505.22;5088839;28;20215;-61
2022/03/10 09:21:13;;;;;;;6.38;3.95;;;;;;;7.91;26.21;95494.63;5089029;28;20205;-60
2022/03/10 09:23:40;;;;;;;7.80;3.92;;;;;;;7.31;26.09;95502.69;5089016;28;20187;-60
2022/03/10 09:26:07;;;;;;;6.88;4.07;;;;;;;7.53;26.43;95490.75;5088649;28;20202;-60
2022/03/10 09:28:34;;;;;;;6.22;3.97;;;;;;;7.23;26.73;95501.19;5089490;28;20237;-60
2022/03/10 09:31:01;;;;;;;3.88;2.97;;;;;;;7.38;26.14;95495.56;5087979;28;20276;-60
2022/03/10 09:33:28;;;;;;;8.52;5.13;;;;;;;7.30;26.87;95495.91;5089247;28;20202;-59
2022/03/10 09:35:56;;;;;;;7.63;4.05;;;;;;;7.27;27.44;95504.94;5088440;28;20568;-63
2022/03/10 09:38:23;;;;;;;5.63;3.45;;;;;;;7.77;26.49;95502.88;5088630;28;20172;-61
2022/03/10 09:40:53;;;;;;;5.15;3.30;;;;;;;8.12;25.46;95511.53;5087838;28;20175;-62
2022/03/10 09:43:22;;;;;;;6.43;4.10;;;;;;;8.81;25.13;95498.53;5088699;28;20195;-60
2022/03/10 09:45:52;;;;;;;4.97;3.38;;;;;;;9.57;24.18;95500.84;5088179;28;20687;-60
2022/03/10 09:48:19;;;;;;;5.40;3.80;;;;;;;8.60;24.03;95500.94;5088388;28;20226;-60
2022/03/10 09:50:47;;;;;;;4.40;3.38;;;;;;;9.58;24.75;95496.41;5087977;28;20233;-60
2022/03/10 09:53:14;;;;;;;4.20;3.05;;;;;;;9.31;24.83;95500.59;5088477;28;20199;-60
2022/03/10 09:55:42;;;;;;;6.55;3.80;;;;;;;8.50;25.12;95504.16;5088305;28;20194;-59
2022/03/10 09:58:09;;;;;;;5.82;3.45;;;;;;;7.80;24.91;95503.22;5088464;28;20191;-61
2022/03/10 10:00:39;;;;;;;5.70;3.40;;;;;;;7.77;25.72;95508.84;5088022;28;20195;-60
2022/03/10 10:03:06;;;;;;;5.63;3.78;;;;;;;7.64;25.96;95509.06;5088778;28;20640;-60
2022/03/10 10:05:39;;;;;;;8.35;4.75;;;;;;;7.87;26.07;95513.53;5088125;28;20469;-59
2022/03/10 10:08:17;;;;;;;8.25;5.43;;;;;;;7.80;25.86;95515.47;5088054;28;20275;-60
2022/03/10 10:10:49;;;;;;;19.30;5.40;;;;;;;7.37;26.55;95517.47;5087620;28;20215;-61
2022/03/10 10:13:43;;;;;;;9.50;4.57;;;;;;;7.10;26.30;95514.38;5088469;28;20647;-61
2022/03/10 10:16:17;;;;;;;8.98;4.68;;;;;;;7.41;27.18;95513.41;5090348;28;20194;-60
2022/03/10 10:18:45;;;;;;;6.95;3.83;;;;;;;7.75;26.63;95515.34;5092253;28;20284;-61
2022/03/10 10:21:19;;;;;;;8.27;5.20;;;;;;;7.62;27.32;95525.94;5092109;28;20633;-61
2022/03/10 10:23:48;;;;;;;7.00;4.35;;;;;;;7.36;27.23;95528.88;5091897;28;20180;-60
2022/03/10 10:26:15;;;;;;;11.02;5.75;;;;;;;7.48;27.25;95534.97;5091859;28;20191;-60
2022/03/10 10:28:48;;;;;;;8.80;4.85;;;;;;;7.54;28.09;95528.84;5091544;28;20200;-61
2022/03/10 10:31:17;;;;;;;8.20;4.97;;;;;;;7.76;27.26;95533.38;5091759;28;20818;-60
2022/03/10 10:34:09;;;;;;;9.80;5.60;;;;;;;6.89;27.84;95538.25;5091601;28;20194;-60
2022/03/10 10:36:37;;;;;;;7.13;4.38;;;;;;;6.89;27.72;95533.84;5091689;28;20222;-61
2022/03/10 10:39:07;;;;;;;8.32;3.78;;;;;;;6.43;26.93;95546.50;5091338;28;20275;-63
2022/03/10 10:41:35;;;;;;;6.40;3.95;;;;;;;6.79;26.80;95536.16;5091756;28;20211;-61
2022/03/10 10:44:05;;;;;;;8.85;4.60;;;;;;;7.31;26.20;95528.75;5091593;28;20187;-61
2022/03/10 10:46:35;;;;;;;11.25;6.07;;;;;;;7.24;27.22;95538.47;5091124;28;20684;-61
2022/03/10 10:49:06;;;;;;;8.30;4.75;;;;;;;7.16;26.50;95532.53;5091496;28;20284;-58
2022/03/10 10:51:35;;;;;;;9.15;5.03;;;;;;;7.22;27.04;95529.03;5091219;28;20226;-59
2022/03/10 10:54:05;;;;;;;6.80;4.03;;;;;;;7.26;26.43;95526.00;5091038;28;20214;-59
2022/03/10 10:56:34;;;;;;;6.07;3.85;;;;;;;7.33;25.70;95521.50;5091963;28;20191;-62
2022/03/10 10:59:03;;;;;;;7.10;4.47;;;;;;;7.38;26.07;95517.25;5092455;28;20970;-63
2022/03/10 11:01:31;;;;;;;6.25;3.90;;;;;;;7.71;26.19;95520.19;5091880;28;20200;-60
2022/03/10 11:03:59;;;;;;;9.65;5.50;;;;;;;7.08;26.45;95511.97;5091327;28;20205;-61
2022/03/10 11:06:26;;;;;;;8.02;4.38;;;;;;;6.97;26.20;95502.28;5091462;28;20187;-60
2022/03/10 11:08:54;;;;;;;10.57;5.25;;;;;;;7.83;26.57;95518.41;5090815;28;20199;-63
2022/03/10 11:11:22;;;;;;;9.52;5.88;;;;;;;7.39;27.06;95515.44;5090950;28;20211;-62
2022/03/10 11:13:50;;;;;;;7.47;4.50;;;;;;;7.43;27.32;95506.94;5090888;28;20197;-61
2022/03/10 11:16:20;;;;;;;6.03;3.60;;;;;;;7.77;27.05;95513.31;5091168;28;20270;-61
2022/03/10 11:18:49;;;;;;;5.53;3.95;;;;;;;8.31;27.06;95501.84;5090773;28;20203;-60
2022/03/10 11:21:44;;;;;;;5.05;3.60;;;;;;;7.82;26.02;95513.41;5090442;28;20191;-58
2022/03/10 11:24:34;;;;;;;4.53;3.47;;;;;;;7.93;27.46;95510.84;5090540;28;20191;-61
2022/03/10 11:27:09;;;;;;;4.82;3.20;;;;;;;8.34;26.89;95520.47;5089930;28;20274;-59
2022/03/10 11:29:36;;;;;;;5.18;3.65;;;;;;;8.06;26.16;95517.69;5090389;28;20203;-60
2022/03/10 11:32:06;;;;;;;5.55;3.60;;;;;;;7.87;26.84;95508.31;5090430;28;20223;-61
2022/03/10 11:34:54;;;;;;;4.40;3.25;;;;;;;7.69;25.40;95529.25;5090425;28;20191;-62
2022/03/10 11:37:33;;;;;;;8.88;4.82;;;;;;;7.29;28.30;95515.94;5091083;28;20198;-62
2022/03/10 11:40:00;;;;;;;8.23;4.93;;;;;;;7.07;29.34;95528.63;5090355;28;20190;-61
2022/03/10 11:42:29;;;;;;;5.82;4.20;;;;;;;6.87;30.10;95533.28;5090857;28;20257;-60
2022/03/10 11:45:11;;;;;;;5.70;4.20;;;;;;;7.13;28.97;95522.53;5090719;28;20253;-63
2022/03/10 11:47:39;;;;;;;6.95;4.70;;;;;;;6.69;29.37;95535.06;5090176;28;20305;-62
2022/03/10 11:50:27;;;;;;;7.65;4.90;;;;;;;6.46;28.22;95534.88;5089772;28;20253;-62